sensor_id;sensor_type;location;lat;lon;timestamp;pressure;altitude;pressure_sealevel;temperature;humidity
43745;BME280;29359;53.048;8.732;2022-11-15T00:00:13;101144.28;;;6.93;95.86
43745;BME280;29359;53.048;8.732;2022-11-15T00:02:14;101151.28;;;6.92;95.80
43745;BME280;29359;53.048;8.732;2022-11-15T00:04:16;101148.66;;;6.91;95.79
43745;BME280;29359;53.048;8.732;2022-11-15T00:06:17;101151.28;;;6.91;96.27
43745;BME280;29359;53.048;8.732;2022-11-15T00:08:19;101147.81;;;6.90;95.73
43745;BME280;29359;53.048;8.732;2022-11-15T00:10:20;101146.06;;;6.89;95.50
43745;BME280;29359;53.048;8.732;2022-11-15T00:12:22;101144.31;;;6.88;95.01
43745;BME280;29359;53.048;8.732;2022-11-15T00:14:23;101140.84;;;6.86;95.07
43745;BME280;29359;53.048;8.732;2022-11-15T00:16:25;101142.63;;;6.83;95.21
43745;BME280;29359;53.048;8.732;2022-11-15T00:18:27;101141.75;;;6.82;94.77
43745;BME280;29359;53.048;8.732;2022-11-15T00:20:29;101140.88;;;6.80;95.20
43745;BME280;29359;53.048;8.732;2022-11-15T00:22:32;101136.53;;;6.78;95.07
43745;BME280;29359;53.048;8.732;2022-11-15T00:24:34;101139.19;;;6.76;95.13
43745;BME280;29359;53.048;8.732;2022-11-15T00:26:35;101142.69;;;6.74;94.59
43745;BME280;29359;53.048;8.732;2022-11-15T00:28:37;101134.84;;;6.69;94.29
43745;BME280;29359;53.048;8.732;2022-11-15T00:30:38;101141.00;;;6.65;93.89
43745;BME280;29359;53.048;8.732;2022-11-15T00:32:41;101139.28;;;6.64;93.51
43745;BME280;29359;53.048;8.732;2022-11-15T00:34:42;101138.41;;;6.62;93.20
43745;BME280;29359;53.048;8.732;2022-11-15T00:36:44;101134.06;;;6.59;92.13
43745;BME280;29359;53.048;8.732;2022-11-15T00:38:45;101142.81;;;6.57;91.24
43745;BME280;29359;53.048;8.732;2022-11-15T00:40:47;101141.09;;;6.54;91.19
43745;BME280;29359;53.048;8.732;2022-11-15T00:42:48;101142.84;;;6.52;91.30
43745;BME280;29359;53.048;8.732;2022-11-15T00:44:49;101145.47;;;6.52;90.79
43745;BME280;29359;53.048;8.732;2022-11-15T00:46:51;101148.13;;;6.51;90.28
43745;BME280;29359;53.048;8.732;2022-11-15T00:48:52;101151.59;;;6.50;90.59
43745;BME280;29359;53.048;8.732;2022-11-15T00:50:54;101154.22;;;6.48;90.59
43745;BME280;29359;53.048;8.732;2022-11-15T00:52:55;101149.88;;;6.46;90.11
43745;BME280;29359;53.048;8.732;2022-11-15T00:54:57;101141.13;;;6.44;90.85
43745;BME280;29359;53.048;8.732;2022-11-15T00:56:58;101147.25;;;6.44;91.26
43745;BME280;29359;53.048;8.732;2022-11-15T00:58:59;101145.50;;;6.43;90.94
43745;BME280;29359;53.048;8.732;2022-11-15T01:01:13;101153.38;;;6.42;91.10
43745;BME280;29359;53.048;8.732;2022-11-15T01:03:15;101144.66;;;6.38;91.00
43745;BME280;29359;53.048;8.732;2022-11-15T01:05:16;101142.03;;;6.38;90.51
43745;BME280;29359;53.048;8.732;2022-11-15T01:07:18;101143.78;;;6.38;90.56
43745;BME280;29359;53.048;8.732;2022-11-15T01:09:19;101148.19;;;6.36;90.39
43745;BME280;29359;53.048;8.732;2022-11-15T01:11:21;101139.44;;;6.35;90.22
43745;BME280;29359;53.048;8.732;2022-11-15T01:13:22;101137.72;;;6.33;89.76
43745;BME280;29359;53.048;8.732;2022-11-15T01:15:24;101138.59;;;6.30;90.10
43745;BME280;29359;53.048;8.732;2022-11-15T01:17:25;101149.09;;;6.30;90.29
43745;BME280;29359;53.048;8.732;2022-11-15T01:19:27;101135.13;;;6.28;90.02
43745;BME280;29359;53.048;8.732;2022-11-15T01:21:29;101133.38;;;6.25;90.92
43745;BME280;29359;53.048;8.732;2022-11-15T01:23:30;101136.88;;;6.24;90.75
43745;BME280;29359;53.048;8.732;2022-11-15T01:25:32;101142.13;;;6.24;90.64
43745;BME280;29359;53.048;8.732;2022-11-15T01:27:34;101137.78;;;6.22;90.47
43745;BME280;29359;53.048;8.732;2022-11-15T01:29:35;101131.69;;;6.18;89.91
43745;BME280;29359;53.048;8.732;2022-11-15T01:31:36;101136.06;;;6.16;89.61
43745;BME280;29359;53.048;8.732;2022-11-15T01:33:39;101135.22;;;6.13;89.02
43745;BME280;29359;53.048;8.732;2022-11-15T01:35:40;101130.00;;;6.10;89.11
43745;BME280;29359;53.048;8.732;2022-11-15T01:37:42;101124.72;;;6.07;88.49
43745;BME280;29359;53.048;8.732;2022-11-15T01:39:43;101117.75;;;6.04;88.83
43745;BME280;29359;53.048;8.732;2022-11-15T01:41:45;101116.88;;;6.02;88.35
43745;BME280;29359;53.048;8.732;2022-11-15T01:43:55;101114.28;;;6.01;88.04
43745;BME280;29359;53.048;8.732;2022-11-15T01:46:09;101108.19;;;5.98;87.95
43745;BME280;29359;53.048;8.732;2022-11-15T01:48:15;101111.69;;;5.88;88.22
43745;BME280;29359;53.048;8.732;2022-11-15T01:50:20;101104.72;;;5.87;88.43
43745;BME280;29359;53.048;8.732;2022-11-15T01:52:25;101107.34;;;5.86;88.23
43745;BME280;29359;53.048;8.732;2022-11-15T01:54:27;101101.22;;;5.85;88.86
43745;BME280;29359;53.048;8.732;2022-11-15T01:56:32;101102.97;;;5.86;88.00
43745;BME280;29359;53.048;8.732;2022-11-15T01:58:38;101090.75;;;5.85;88.59
43745;BME280;29359;53.048;8.732;2022-11-15T02:00:41;101093.38;;;5.85;88.02
43745;BME280;29359;53.048;8.732;2022-11-15T02:02:43;101085.50;;;5.87;88.26
43745;BME280;29359;53.048;8.732;2022-11-15T02:04:46;101085.50;;;5.88;88.56
43745;BME280;29359;53.048;8.732;2022-11-15T02:06:48;101085.50;;;5.90;89.65
43745;BME280;29359;53.048;8.732;2022-11-15T02:08:50;101070.63;;;5.93;90.46
43745;BME280;29359;53.048;8.732;2022-11-15T02:10:52;101075.88;;;5.96;90.02
43745;BME280;29359;53.048;8.732;2022-11-15T02:12:54;101074.97;;;5.99;89.44
43745;BME280;29359;53.048;8.732;2022-11-15T02:14:57;101074.97;;;6.01;90.64
43745;BME280;29359;53.048;8.732;2022-11-15T02:17:13;101079.31;;;6.05;90.85
43745;BME280;29359;53.048;8.732;2022-11-15T02:30:38;101059.16;;;6.17;90.46
43745;BME280;29359;53.048;8.732;2022-11-15T02:35:15;101060.00;;;6.24;91.58
43745;BME280;29359;53.048;8.732;2022-11-15T02:42:13;101073.91;;;6.34;93.48
43745;BME280;29359;53.048;8.732;2022-11-15T02:44:39;101074.75;;;6.36;93.66
43745;BME280;29359;53.048;8.732;2022-11-15T02:46:50;101065.13;;;6.39;93.71
43745;BME280;29359;53.048;8.732;2022-11-15T02:49:12;101064.22;;;6.42;94.07
43745;BME280;29359;53.048;8.732;2022-11-15T02:51:15;101059.81;;;6.45;94.23
43745;BME280;29359;53.048;8.732;2022-11-15T02:53:18;101063.28;;;6.49;94.27
43745;BME280;29359;53.048;8.732;2022-11-15T02:55:48;101047.56;;;6.52;94.79
43745;BME280;29359;53.048;8.732;2022-11-15T02:57:57;101050.16;;;6.55;95.01
43745;BME280;29359;53.048;8.732;2022-11-15T03:04:55;101056.16;;;6.68;95.58
43745;BME280;29359;53.048;8.732;2022-11-15T03:07:07;101061.38;;;6.71;96.12
43745;BME280;29359;53.048;8.732;2022-11-15T03:11:29;101056.06;;;6.77;96.46
43745;BME280;29359;53.048;8.732;2022-11-15T03:15:46;101048.16;;;6.83;96.57
43745;BME280;29359;53.048;8.732;2022-11-15T03:17:58;101047.22;;;6.87;96.93
43745;BME280;29359;53.048;8.732;2022-11-15T03:20:04;101052.44;;;6.90;96.94
43745;BME280;29359;53.048;8.732;2022-11-15T03:22:09;101051.53;;;6.92;97.16
43745;BME280;29359;53.048;8.732;2022-11-15T03:24:14;101045.44;;;6.95;96.97
43745;BME280;29359;53.048;8.732;2022-11-15T03:26:22;101048.88;;;6.99;97.50
43745;BME280;29359;53.048;8.732;2022-11-15T03:28:40;101051.47;;;7.03;97.53
43745;BME280;29359;53.048;8.732;2022-11-15T03:30:46;101046.19;;;7.05;97.74
43745;BME280;29359;53.048;8.732;2022-11-15T03:32:56;101044.41;;;7.08;97.73
43745;BME280;29359;53.048;8.732;2022-11-15T03:35:23;101040.00;;;7.10;97.72
43745;BME280;29359;53.048;8.732;2022-11-15T03:37:34;101045.22;;;7.13;97.93
43745;BME280;29359;53.048;8.732;2022-11-15T03:39:37;101038.19;;;7.15;98.04
43745;BME280;29359;53.048;8.732;2022-11-15T03:41:54;101037.28;;;7.19;98.08
43745;BME280;29359;53.048;8.732;2022-11-15T03:46:33;101034.59;;;7.25;98.64
43745;BME280;29359;53.048;8.732;2022-11-15T03:48:40;101032.81;;;7.28;98.25
43745;BME280;29359;53.048;8.732;2022-11-15T03:50:45;101037.13;;;7.32;98.44
43745;BME280;29359;53.048;8.732;2022-11-15T03:52:48;101038.88;;;7.33;98.35
43745;BME280;29359;53.048;8.732;2022-11-15T03:54:54;101036.22;;;7.37;99.08
43745;BME280;29359;53.048;8.732;2022-11-15T03:56:56;101030.94;;;7.40;99.09
43745;BME280;29359;53.048;8.732;2022-11-15T03:58:57;101030.91;;;7.43;99.37
43745;BME280;29359;53.048;8.732;2022-11-15T04:00:59;101026.50;;;7.45;98.96
43745;BME280;29359;53.048;8.732;2022-11-15T04:03:00;101031.72;;;7.48;99.12
43745;BME280;29359;53.048;8.732;2022-11-15T04:05:03;101036.06;;;7.51;99.62
43745;BME280;29359;53.048;8.732;2022-11-15T04:07:04;101027.28;;;7.52;99.08
43745;BME280;29359;53.048;8.732;2022-11-15T04:09:06;101028.13;;;7.54;99.39
43745;BME280;29359;53.048;8.732;2022-11-15T04:11:07;101035.13;;;7.55;99.56
43745;BME280;29359;53.048;8.732;2022-11-15T04:13:09;101017.59;;;7.55;99.18
43745;BME280;29359;53.048;8.732;2022-11-15T04:15:13;101029.81;;;7.58;98.85
43745;BME280;29359;53.048;8.732;2022-11-15T04:17:15;101031.53;;;7.61;98.75
43745;BME280;29359;53.048;8.732;2022-11-15T04:19:16;101025.41;;;7.62;99.13
43745;BME280;29359;53.048;8.732;2022-11-15T04:21:36;101024.50;;;7.64;98.93
43745;BME280;29359;53.048;8.732;2022-11-15T04:24:16;101021.84;;;7.66;98.99
43745;BME280;29359;53.048;8.732;2022-11-15T04:26:20;101018.31;;;7.68;99.19
43745;BME280;29359;53.048;8.732;2022-11-15T04:28:23;101027.03;;;7.70;99.53
43745;BME280;29359;53.048;8.732;2022-11-15T04:30:24;101029.66;;;7.70;99.08
43745;BME280;29359;53.048;8.732;2022-11-15T04:32:26;101036.63;;;7.73;99.58
43745;BME280;29359;53.048;8.732;2022-11-15T04:34:27;101033.09;;;7.75;99.14
43745;BME280;29359;53.048;8.732;2022-11-15T04:36:29;101039.22;;;7.76;99.40
43745;BME280;29359;53.048;8.732;2022-11-15T04:38:48;101041.81;;;7.79;99.26
43745;BME280;29359;53.048;8.732;2022-11-15T04:40:50;101039.19;;;7.80;99.47
43745;BME280;29359;53.048;8.732;2022-11-15T04:42:51;101033.03;;;7.83;99.44
43745;BME280;29359;53.048;8.732;2022-11-15T04:44:53;101034.75;;;7.85;99.27
43745;BME280;29359;53.048;8.732;2022-11-15T04:46:54;101035.59;;;7.87;99.21
43745;BME280;29359;53.048;8.732;2022-11-15T04:48:56;101032.06;;;7.88;99.59
43745;BME280;29359;53.048;8.732;2022-11-15T04:50:59;101025.91;;;7.91;99.82
43745;BME280;29359;53.048;8.732;2022-11-15T04:53:01;101028.50;;;7.93;99.61
43745;BME280;29359;53.048;8.732;2022-11-15T04:55:02;101034.59;;;7.95;99.77
43745;BME280;29359;53.048;8.732;2022-11-15T04:57:08;101031.09;;;7.96;99.43
43745;BME280;29359;53.048;8.732;2022-11-15T04:59:10;101028.41;;;7.99;99.75
43745;BME280;29359;53.048;8.732;2022-11-15T05:01:13;101041.53;;;8.00;99.39
43745;BME280;29359;53.048;8.732;2022-11-15T05:03:16;101033.63;;;8.02;99.90
43745;BME280;29359;53.048;8.732;2022-11-15T05:05:36;101027.44;;;8.04;99.71
43745;BME280;29359;53.048;8.732;2022-11-15T05:07:38;101030.06;;;8.06;100.00
43745;BME280;29359;53.048;8.732;2022-11-15T05:09:39;101039.66;;;8.08;99.48
43745;BME280;29359;53.048;8.732;2022-11-15T05:11:41;101031.75;;;8.10;99.86
43745;BME280;29359;53.048;8.732;2022-11-15T05:13:42;101040.47;;;8.12;99.76
43745;BME280;29359;53.048;8.732;2022-11-15T05:15:44;101033.44;;;8.14;100.00
43745;BME280;29359;53.048;8.732;2022-11-15T05:17:45;101038.66;;;8.17;100.00
43745;BME280;29359;53.048;8.732;2022-11-15T05:19:47;101034.22;;;8.19;99.88
43745;BME280;29359;53.048;8.732;2022-11-15T05:21:48;101040.34;;;8.21;99.90
43745;BME280;29359;53.048;8.732;2022-11-15T05:23:50;101029.81;;;8.24;100.00
43745;BME280;29359;53.048;8.732;2022-11-15T05:25:51;101028.91;;;8.25;99.97
43745;BME280;29359;53.048;8.732;2022-11-15T05:27:53;101020.09;;;8.28;100.00
43745;BME280;29359;53.048;8.732;2022-11-15T05:29:54;101014.81;;;8.29;99.69
43745;BME280;29359;53.048;8.732;2022-11-15T05:31:56;101019.16;;;8.32;100.00
43745;BME280;29359;53.048;8.732;2022-11-15T05:33:58;101015.63;;;8.33;100.00
43745;BME280;29359;53.048;8.732;2022-11-15T05:36:24;101019.13;;;8.35;100.00
43745;BME280;29359;53.048;8.732;2022-11-15T05:38:26;101016.47;;;8.36;99.77
43745;BME280;29359;53.048;8.732;2022-11-15T05:40:29;101022.59;;;8.38;100.00
43745;BME280;29359;53.048;8.732;2022-11-15T05:42:30;101022.53;;;8.41;100.00
43745;BME280;29359;53.048;8.732;2022-11-15T05:44:32;101025.97;;;8.46;100.00
43745;BME280;29359;53.048;8.732;2022-11-15T05:46:37;101021.53;;;8.48;99.95
43745;BME280;29359;53.048;8.732;2022-11-15T05:48:43;101012.75;;;8.49;100.00
43745;BME280;29359;53.048;8.732;2022-11-15T05:50:46;101009.22;;;8.50;100.00
43745;BME280;29359;53.048;8.732;2022-11-15T05:52:49;101011.81;;;8.54;100.00
43745;BME280;29359;53.048;8.732;2022-11-15T05:54:52;101010.03;;;8.54;100.00
43745;BME280;29359;53.048;8.732;2022-11-15T05:56:53;101014.38;;;8.57;100.00
43745;BME280;29359;53.048;8.732;2022-11-15T05:58:57;101020.47;;;8.59;99.65
43745;BME280;29359;53.048;8.732;2022-11-15T06:01:00;101018.69;;;8.61;99.43
43745;BME280;29359;53.048;8.732;2022-11-15T06:03:02;101016.91;;;8.63;99.80
43745;BME280;29359;53.048;8.732;2022-11-15T06:05:03;101016.84;;;8.66;100.00
43745;BME280;29359;53.048;8.732;2022-11-15T06:07:05;101018.59;;;8.67;99.63
43745;BME280;29359;53.048;8.732;2022-11-15T06:09:06;101017.69;;;8.69;100.00
43745;BME280;29359;53.048;8.732;2022-11-15T06:11:08;101019.41;;;8.72;99.67
43745;BME280;29359;53.048;8.732;2022-11-15T06:13:09;101021.13;;;8.73;99.82
43745;BME280;29359;53.048;8.732;2022-11-15T06:15:11;101024.63;;;8.73;99.57
43745;BME280;29359;53.048;8.732;2022-11-15T06:17:12;101023.72;;;8.76;100.00
43745;BME280;29359;53.048;8.732;2022-11-15T06:19:14;101028.09;;;8.77;100.00
43745;BME280;29359;53.048;8.732;2022-11-15T06:21:15;101029.81;;;8.78;100.00
43745;BME280;29359;53.048;8.732;2022-11-15T06:23:17;101024.56;;;8.78;100.00
43745;BME280;29359;53.048;8.732;2022-11-15T06:25:18;101031.53;;;8.80;100.00
43745;BME280;29359;53.048;8.732;2022-11-15T06:27:20;101033.25;;;8.81;99.98
43745;BME280;29359;53.048;8.732;2022-11-15T06:29:21;101034.13;;;8.82;99.83
43745;BME280;29359;53.048;8.732;2022-11-15T06:31:23;101032.38;;;8.82;99.79
43745;BME280;29359;53.048;8.732;2022-11-15T06:33:24;101034.97;;;8.84;100.00
43745;BME280;29359;53.048;8.732;2022-11-15T06:35:26;101037.59;;;8.84;100.00
43745;BME280;29359;53.048;8.732;2022-11-15T06:37:27;101031.44;;;8.85;100.00
43745;BME280;29359;53.048;8.732;2022-11-15T06:39:29;101037.53;;;8.89;99.58
43745;BME280;29359;53.048;8.732;2022-11-15T06:41:34;101039.28;;;8.88;100.00
43745;BME280;29359;53.048;8.732;2022-11-15T06:43:36;101041.03;;;8.89;100.00
43745;BME280;29359;53.048;8.732;2022-11-15T06:45:38;101040.09;;;8.92;100.00
43745;BME280;29359;53.048;8.732;2022-11-15T06:47:46;101042.69;;;8.93;100.00
43745;BME280;29359;53.048;8.732;2022-11-15T06:49:48;101033.91;;;8.94;100.00
43745;BME280;29359;53.048;8.732;2022-11-15T06:51:49;101044.41;;;8.96;100.00
43745;BME280;29359;53.048;8.732;2022-11-15T06:53:51;101038.25;;;8.97;99.78
43745;BME280;29359;53.048;8.732;2022-11-15T06:55:53;101043.47;;;8.98;100.00
43745;BME280;29359;53.048;8.732;2022-11-15T06:57:56;101041.72;;;8.99;100.00
43745;BME280;29359;53.048;8.732;2022-11-15T06:59:57;101044.31;;;9.00;100.00
43745;BME280;29359;53.048;8.732;2022-11-15T07:01:59;101047.78;;;9.02;100.00
43745;BME280;29359;53.048;8.732;2022-11-15T07:04:00;101049.53;;;9.03;100.00
43745;BME280;29359;53.048;8.732;2022-11-15T07:06:02;101046.00;;;9.04;100.00
43745;BME280;29359;53.048;8.732;2022-11-15T07:08:08;101050.38;;;9.05;100.00
43745;BME280;29359;53.048;8.732;2022-11-15T07:10:10;101039.84;;;9.05;100.00
43745;BME280;29359;53.048;8.732;2022-11-15T07:12:12;101050.38;;;9.05;100.00
43745;BME280;29359;53.048;8.732;2022-11-15T07:14:14;101053.88;;;9.06;100.00
43745;BME280;29359;53.048;8.732;2022-11-15T07:16:15;101053.84;;;9.07;100.00
43745;BME280;29359;53.048;8.732;2022-11-15T07:18:17;101052.94;;;9.08;100.00
43745;BME280;29359;53.048;8.732;2022-11-15T07:20:18;101049.44;;;9.08;100.00
43745;BME280;29359;53.048;8.732;2022-11-15T07:22:20;101057.31;;;9.09;100.00
43745;BME280;29359;53.048;8.732;2022-11-15T07:24:21;101047.66;;;9.10;100.00
43745;BME280;29359;53.048;8.732;2022-11-15T07:26:23;101058.19;;;9.11;100.00
43745;BME280;29359;53.048;8.732;2022-11-15T07:28:28;101052.00;;;9.14;100.00
43745;BME280;29359;53.048;8.732;2022-11-15T07:30:30;101045.81;;;9.17;100.00
43745;BME280;29359;53.048;8.732;2022-11-15T07:32:31;101037.00;;;9.18;100.00
43745;BME280;29359;53.048;8.732;2022-11-15T07:34:33;101042.16;;;9.24;100.00
43745;BME280;29359;53.048;8.732;2022-11-15T07:36:34;101046.47;;;9.28;100.00
43745;BME280;29359;53.048;8.732;2022-11-15T07:38:36;101042.88;;;9.32;100.00
43745;BME280;29359;53.048;8.732;2022-11-15T07:40:43;101043.66;;;9.35;100.00
43745;BME280;29359;53.048;8.732;2022-11-15T07:42:44;101046.25;;;9.38;100.00
43745;BME280;29359;53.048;8.732;2022-11-15T07:44:55;101050.50;;;9.44;100.00
43745;BME280;29359;53.048;8.732;2022-11-15T07:46:57;101047.78;;;9.49;100.00
43745;BME280;29359;53.048;8.732;2022-11-15T07:48:59;101040.66;;;9.55;100.00
43745;BME280;29359;53.048;8.732;2022-11-15T07:51:00;101044.09;;;9.59;100.00
43745;BME280;29359;53.048;8.732;2022-11-15T07:53:02;101044.91;;;9.62;100.00
43745;BME280;29359;53.048;8.732;2022-11-15T07:55:04;101031.66;;;9.65;100.00
43745;BME280;29359;53.048;8.732;2022-11-15T07:57:05;101035.09;;;9.69;100.00
43745;BME280;29359;53.048;8.732;2022-11-15T07:59:08;101033.28;;;9.71;100.00
43745;BME280;29359;53.048;8.732;2022-11-15T08:01:10;101034.94;;;9.75;100.00
43745;BME280;29359;53.048;8.732;2022-11-15T08:03:15;101039.28;;;9.77;100.00
43745;BME280;29359;53.048;8.732;2022-11-15T08:05:17;101039.22;;;9.81;100.00
43745;BME280;29359;53.048;8.732;2022-11-15T08:07:19;101048.84;;;9.83;100.00
43745;BME280;29359;53.048;8.732;2022-11-15T08:09:20;101052.28;;;9.87;100.00
43745;BME280;29359;53.048;8.732;2022-11-15T08:11:22;101047.81;;;9.89;100.00
43745;BME280;29359;53.048;8.732;2022-11-15T08:13:23;101044.28;;;9.90;100.00
43745;BME280;29359;53.048;8.732;2022-11-15T08:15:25;101040.69;;;9.94;100.00
43745;BME280;29359;53.048;8.732;2022-11-15T08:17:27;101043.25;;;9.97;100.00
43745;BME280;29359;53.048;8.732;2022-11-15T08:19:28;101041.41;;;10.02;100.00
43745;BME280;29359;53.048;8.732;2022-11-15T08:21:30;101043.94;;;10.06;100.00
43745;BME280;29359;53.048;8.732;2022-11-15T08:23:31;101042.94;;;10.12;100.00
43745;BME280;29359;53.048;8.732;2022-11-15T08:25:35;101046.31;;;10.17;100.00
43745;BME280;29359;53.048;8.732;2022-11-15T08:27:36;101043.59;;;10.22;100.00
43745;BME280;29359;53.048;8.732;2022-11-15T08:29:38;101048.78;;;10.26;100.00
43745;BME280;29359;53.048;8.732;2022-11-15T08:31:39;101045.16;;;10.30;100.00
43745;BME280;29359;53.048;8.732;2022-11-15T08:33:41;101049.47;;;10.34;100.00
43745;BME280;29359;53.048;8.732;2022-11-15T08:35:43;101048.47;;;10.38;100.00
43745;BME280;29359;53.048;8.732;2022-11-15T08:37:45;101044.91;;;10.43;100.00
43745;BME280;29359;53.048;8.732;2022-11-15T08:39:46;101045.69;;;10.46;100.00
43745;BME280;29359;53.048;8.732;2022-11-15T08:41:48;101049.97;;;10.50;100.00
43745;BME280;29359;53.048;8.732;2022-11-15T08:43:50;101051.69;;;10.53;100.00
43745;BME280;29359;53.048;8.732;2022-11-15T08:45:51;101050.75;;;10.55;100.00
43745;BME280;29359;53.048;8.732;2022-11-15T08:47:52;101060.31;;;10.59;100.00
43745;BME280;29359;53.048;8.732;2022-11-15T08:49:55;101044.44;;;10.61;100.00
43745;BME280;29359;53.048;8.732;2022-11-15T08:51:56;101053.16;;;10.64;100.00
43745;BME280;29359;53.048;8.732;2022-11-15T08:53:58;101050.44;;;10.67;100.00
43745;BME280;29359;53.048;8.732;2022-11-15T08:55:59;101051.25;;;10.69;100.00
43745;BME280;29359;53.048;8.732;2022-11-15T08:58:01;101051.19;;;10.73;100.00
43745;BME280;29359;53.048;8.732;2022-11-15T09:00:03;101049.31;;;10.76;100.00
43745;BME280;29359;53.048;8.732;2022-11-15T09:02:05;101051.88;;;10.79;100.00
43745;BME280;29359;53.048;8.732;2022-11-15T09:04:06;101043.91;;;10.81;100.00
43745;BME280;29359;53.048;8.732;2022-11-15T09:06:08;101045.63;;;10.83;99.74
43745;BME280;29359;53.048;8.732;2022-11-15T09:08:10;101043.84;;;10.85;99.56
43745;BME280;29359;53.048;8.732;2022-11-15T09:10:33;101052.59;;;10.87;99.88
43745;BME280;29359;53.048;8.732;2022-11-15T09:12:35;101049.81;;;10.92;100.00
43745;BME280;29359;53.048;8.732;2022-11-15T09:14:37;101053.25;;;10.95;100.00
43745;BME280;29359;53.048;8.732;2022-11-15T09:16:38;101047.00;;;10.98;99.58
43745;BME280;29359;53.048;8.732;2022-11-15T09:18:41;101045.16;;;11.01;99.77
43745;BME280;29359;53.048;8.732;2022-11-15T09:20:42;101042.44;;;11.05;99.21
43745;BME280;29359;53.048;8.732;2022-11-15T09:22:44;101043.16;;;11.10;99.24
43745;BME280;29359;53.048;8.732;2022-11-15T09:24:45;101045.78;;;11.11;99.34
43745;BME280;29359;53.048;8.732;2022-11-15T09:26:49;101058.84;;;11.16;99.08
43745;BME280;29359;53.048;8.732;2022-11-15T09:28:51;101051.72;;;11.19;98.83
43745;BME280;29359;53.048;8.732;2022-11-15T09:31:00;101053.41;;;11.22;98.57
43745;BME280;29359;53.048;8.732;2022-11-15T09:33:09;101047.16;;;11.24;98.42
43745;BME280;29359;53.048;8.732;2022-11-15T09:35:11;101040.06;;;11.26;98.28
43745;BME280;29359;53.048;8.732;2022-11-15T09:37:12;101046.16;;;11.30;98.56
43745;BME280;29359;53.048;8.732;2022-11-15T09:39:14;101048.69;;;11.35;98.66
43745;BME280;29359;53.048;8.732;2022-11-15T09:43:31;101045.63;;;11.48;98.46
43745;BME280;29359;53.048;8.732;2022-11-15T09:50:44;101038.84;;;11.69;98.24
43745;BME280;29359;53.048;8.732;2022-11-15T09:52:48;101031.66;;;11.74;98.13
43745;BME280;29359;53.048;8.732;2022-11-15T09:54:51;101036.00;;;11.78;97.67
43745;BME280;29359;53.048;8.732;2022-11-15T09:57:06;101036.72;;;11.83;97.44
43745;BME280;29359;53.048;8.732;2022-11-15T10:01:45;101031.28;;;11.88;95.31
43745;BME280;29359;53.048;8.732;2022-11-15T10:03:51;101044.41;;;11.91;95.12
43745;BME280;29359;53.048;8.732;2022-11-15T10:05:55;101045.19;;;11.94;94.61
43745;BME280;29359;53.048;8.732;2022-11-15T10:10:17;101034.50;;;11.98;94.31
43745;BME280;29359;53.048;8.732;2022-11-15T10:12:22;101032.72;;;11.98;93.90
43745;BME280;29359;53.048;8.732;2022-11-15T10:14:26;101020.31;;;12.00;93.55
43745;BME280;29359;53.048;8.732;2022-11-15T10:22:23;101026.22;;;12.08;92.94
43745;BME280;29359;53.048;8.732;2022-11-15T10:24:12;101024.31;;;12.13;93.25
43745;BME280;29359;53.048;8.732;2022-11-15T10:26:16;101028.63;;;12.17;93.24
43745;BME280;29359;53.048;8.732;2022-11-15T10:30:28;101016.97;;;12.23;92.69
43745;BME280;29359;53.048;8.732;2022-11-15T10:32:32;101013.31;;;12.27;93.02
43745;BME280;29359;53.048;8.732;2022-11-15T10:34:37;101004.41;;;12.30;92.93
43745;BME280;29359;53.048;8.732;2022-11-15T10:36:44;101004.28;;;12.33;93.07
43745;BME280;29359;53.048;8.732;2022-11-15T10:41:07;100989.06;;;12.39;92.41
43745;BME280;29359;53.048;8.732;2022-11-15T10:45:37;100985.09;;;12.52;91.97
43745;BME280;29359;53.048;8.732;2022-11-15T10:47:39;100983.84;;;12.64;92.82
43745;BME280;29359;53.048;8.732;2022-11-15T10:49:53;100971.34;;;12.93;93.30
43745;BME280;29359;53.048;8.732;2022-11-15T10:52:18;100962.03;;;13.31;93.30
43745;BME280;29359;53.048;8.732;2022-11-15T10:56:49;100963.75;;;13.78;89.26
43745;BME280;29359;53.048;8.732;2022-11-15T10:58:54;100966.41;;;13.78;87.72
43745;BME280;29359;53.048;8.732;2022-11-15T11:01:12;100955.72;;;13.80;87.48
43745;BME280;29359;53.048;8.732;2022-11-15T11:03:35;100960.34;;;13.75;86.66
43745;BME280;29359;53.048;8.732;2022-11-15T11:05:39;100950.59;;;13.75;86.13
43745;BME280;29359;53.048;8.732;2022-11-15T11:07:56;100954.91;;;13.78;86.42
43745;BME280;29359;53.048;8.732;2022-11-15T11:10:00;100954.00;;;13.79;85.98
43745;BME280;29359;53.048;8.732;2022-11-15T11:12:04;100950.59;;;13.75;84.48
43745;BME280;29359;53.048;8.732;2022-11-15T11:14:12;100947.09;;;13.75;84.90
43745;BME280;29359;53.048;8.732;2022-11-15T11:18:26;100945.16;;;13.78;85.93
43745;BME280;29359;53.048;8.732;2022-11-15T11:20:46;100937.53;;;14.14;86.00
43745;BME280;29359;53.048;8.732;2022-11-15T11:23:03;100931.50;;;14.73;85.52
43745;BME280;29359;53.048;8.732;2022-11-15T11:25:36;100925.25;;;14.95;81.06
43745;BME280;29359;53.048;8.732;2022-11-15T11:32:44;100919.56;;;14.63;81.65
43745;BME280;29359;53.048;8.732;2022-11-15T11:35:03;100911.50;;;14.65;81.89
43745;BME280;29359;53.048;8.732;2022-11-15T11:37:20;100910.13;;;14.76;81.28
43745;BME280;29359;53.048;8.732;2022-11-15T11:48:50;100910.66;;;14.64;79.73
43745;BME280;29359;53.048;8.732;2022-11-15T11:50:57;100906.41;;;14.60;78.99
43745;BME280;29359;53.048;8.732;2022-11-15T11:53:31;100911.78;;;14.59;78.44
43745;BME280;29359;53.048;8.732;2022-11-15T11:55:49;100911.78;;;14.59;79.20
43745;BME280;29359;53.048;8.732;2022-11-15T11:58:17;100920.53;;;14.61;78.47
43745;BME280;29359;53.048;8.732;2022-11-15T12:00:23;100922.47;;;14.57;78.31
43745;BME280;29359;53.048;8.732;2022-11-15T12:02:29;100919.81;;;14.57;77.95
43745;BME280;29359;53.048;8.732;2022-11-15T12:04:38;100912.84;;;14.55;78.62
43745;BME280;29359;53.048;8.732;2022-11-15T12:11:50;100912.91;;;14.53;77.65
43745;BME280;29359;53.048;8.732;2022-11-15T12:13:57;100907.66;;;14.52;78.19